createdAt,value
2023-05-08T00:02:33.609Z,6.07
2023-05-08T00:05:22.216Z,7.00
2023-05-08T00:08:10.656Z,6.97
2023-05-08T00:10:59.104Z,5.93
2023-05-08T00:13:49.061Z,5.80
2023-05-08T00:16:37.509Z,5.83
2023-05-08T00:19:26.086Z,6.20
2023-05-08T00:22:14.420Z,6.10
2023-05-08T00:25:03.327Z,6.27
2023-05-08T00:27:52.092Z,6.17
2023-05-08T00:30:43.018Z,6.17
2023-05-08T00:33:31.449Z,6.47
2023-05-08T00:36:19.793Z,7.10
2023-05-08T00:39:08.441Z,6.60
2023-05-08T00:41:58.468Z,7.90
2023-05-08T00:44:47.193Z,6.80
2023-05-08T00:47:37.151Z,7.23
2023-05-08T00:50:27.969Z,7.97
2023-05-08T00:53:17.100Z,8.20
2023-05-08T00:56:07.467Z,7.90
2023-05-08T00:58:56.546Z,7.00
2023-05-08T01:08:19.136Z,6.53
2023-05-08T01:12:14.231Z,7.27
2023-05-08T01:23:10.689Z,7.33
2023-05-08T01:29:39.881Z,7.53
2023-05-08T01:32:43.312Z,7.80
2023-05-08T01:35:41.512Z,7.60
2023-05-08T01:38:40.421Z,7.47
2023-05-08T01:41:32.828Z,7.97
2023-05-08T01:44:25.985Z,7.87
2023-05-08T05:39:54.607Z,6.60
2023-05-08T05:42:43.465Z,6.43
2023-05-08T05:45:36.342Z,5.20
2023-05-08T05:48:24.705Z,6.00
2023-05-08T05:51:14.740Z,5.70
2023-05-08T05:54:04.704Z,6.23
2023-05-08T05:56:55.670Z,5.53
2023-05-08T05:59:53.596Z,4.80
2023-05-08T06:02:48.182Z,5.13
2023-05-08T06:05:37.748Z,5.43
2023-05-08T06:08:29.487Z,5.93
2023-05-08T06:11:18.230Z,5.50
2023-05-08T06:14:11.280Z,5.73
2023-05-08T06:17:00.198Z,5.10
2023-05-08T06:19:50.812Z,6.23
2023-05-08T06:22:40.453Z,4.67
2023-05-08T06:25:31.399Z,5.20
2023-05-08T06:28:20.266Z,4.47
2023-05-08T06:31:14.605Z,3.87
2023-05-08T06:34:05.469Z,4.97
2023-05-08T06:37:01.624Z,3.80
2023-05-08T06:39:57.297Z,4.33
2023-05-08T06:42:53.029Z,4.63
2023-05-08T06:45:41.900Z,4.33
2023-05-08T06:48:32.165Z,3.70
2023-05-08T06:51:23.322Z,3.73
2023-05-08T06:54:13.905Z,3.53
2023-05-08T06:57:02.562Z,4.30
2023-05-08T06:59:51.314Z,4.70
2023-05-08T07:02:40.274Z,4.10
2023-05-08T07:05:30.453Z,4.27
2023-05-08T07:08:20.240Z,4.20
2023-05-08T07:11:11.798Z,4.10
2023-05-08T07:14:06.167Z,4.57
2023-05-08T07:16:58.768Z,4.03
2023-05-08T07:19:52.073Z,4.07
2023-05-08T07:22:43.313Z,3.90
2023-05-08T07:25:32.857Z,4.10
2023-05-08T07:28:22.751Z,4.70
2023-05-08T07:31:12.760Z,3.40
2023-05-08T07:34:04.393Z,2.87
2023-05-08T07:36:52.842Z,2.80
2023-05-08T07:39:43.009Z,2.70
2023-05-08T07:42:31.537Z,3.47
2023-05-08T07:45:21.284Z,3.30
2023-05-08T08:03:38.705Z,3.20
2023-05-08T08:06:29.101Z,2.90
2023-05-08T08:09:19.601Z,3.60
2023-05-08T08:12:18.246Z,3.30
2023-05-08T08:15:09.281Z,3.30
2023-05-08T08:18:01.339Z,3.27
2023-05-08T08:20:52.370Z,3.07
2023-05-08T08:24:02.828Z,3.00
2023-05-08T08:27:09.636Z,3.00
2023-05-08T08:30:15.651Z,2.90
2023-05-08T08:33:25.140Z,3.10
2023-05-08T08:36:43.139Z,3.63
2023-05-08T08:39:36.036Z,3.27
2023-05-08T08:42:47.758Z,2.50
2023-05-08T08:45:54.757Z,3.13
2023-05-08T08:48:49.923Z,2.80
2023-05-08T08:51:53.118Z,2.93
2023-05-08T08:54:51.981Z,3.17
2023-05-08T08:57:59.526Z,2.53
2023-05-08T09:00:49.786Z,3.07
2023-05-08T09:03:43.042Z,3.03
2023-05-08T09:06:32.338Z,3.30
2023-05-08T09:09:25.028Z,3.13
2023-05-08T09:12:15.454Z,2.90
2023-05-08T09:15:17.033Z,3.80
2023-05-08T09:18:11.344Z,2.90
2023-05-08T09:21:02.403Z,3.00
2023-05-08T09:24:00.207Z,2.80
2023-05-08T09:30:09.283Z,3.60
2023-05-08T09:33:12.049Z,3.30
2023-05-08T09:36:10.789Z,3.60
2023-05-08T09:39:00.290Z,2.87
2023-05-08T09:42:00.964Z,2.57
2023-05-08T09:44:52.219Z,2.87
2023-05-08T09:47:50.678Z,2.57
2023-05-08T09:50:41.580Z,3.20
2023-05-08T09:53:34.548Z,3.17
2023-05-08T09:56:44.849Z,2.63
2023-05-08T09:59:38.551Z,2.80
2023-05-08T10:02:36.195Z,3.20
2023-05-08T10:05:32.489Z,3.03
2023-05-08T10:08:25.114Z,2.73
2023-05-08T10:11:22.482Z,2.80
2023-05-08T10:14:16.973Z,2.77
2023-05-08T10:17:15.326Z,2.77
2023-05-08T10:20:12.388Z,2.33
2023-05-08T10:23:12.352Z,2.80
2023-05-08T10:26:09.891Z,2.20
2023-05-08T10:29:01.055Z,2.60
2023-05-08T10:31:56.240Z,2.17
2023-05-08T10:34:51.520Z,2.97
2023-05-08T10:37:43.723Z,2.80
2023-05-08T10:40:32.692Z,2.50
2023-05-08T10:43:26.995Z,2.30
2023-05-08T10:46:28.467Z,2.63
2023-05-08T10:49:34.495Z,2.70
2023-05-08T10:52:37.077Z,2.47
2023-05-08T10:55:39.348Z,2.67
2023-05-08T10:58:39.283Z,1.80
2023-05-08T11:01:29.419Z,2.60
2023-05-08T11:04:30.690Z,2.33
2023-05-08T11:07:32.705Z,2.50
2023-05-08T11:10:41.246Z,2.50
2023-05-08T11:13:37.019Z,2.63
2023-05-08T11:17:04.541Z,2.20
2023-05-08T11:20:09.009Z,2.63
2023-05-08T11:23:23.991Z,2.23
2023-05-08T11:26:24.754Z,2.30
2023-05-08T11:29:39.812Z,4.90
2023-05-08T11:33:02.364Z,2.53
2023-05-08T11:36:00.377Z,2.77
2023-05-08T11:39:09.293Z,2.33
2023-05-08T11:42:39.493Z,2.77
2023-05-08T11:45:29.534Z,2.40
2023-05-08T11:48:21.257Z,1.90
2023-05-08T11:51:16.937Z,2.33
2023-05-08T11:54:06.947Z,2.70
2023-05-08T11:57:01.703Z,2.30
2023-05-08T11:59:55.754Z,2.23
2023-05-08T12:02:50.630Z,2.47
2023-05-08T12:05:50.582Z,2.10
2023-05-08T12:08:42.688Z,2.20
2023-05-08T12:11:38.952Z,2.57
2023-05-08T12:14:40.455Z,2.50
2023-05-08T12:17:32.505Z,2.80
2023-05-08T12:20:22.777Z,3.07
2023-05-08T12:23:16.233Z,2.10
2023-05-08T12:26:19.453Z,2.30
2023-05-08T12:29:14.085Z,2.07
2023-05-08T12:32:23.996Z,2.50
2023-05-08T12:35:23.925Z,2.00
2023-05-08T12:38:18.313Z,2.60
2023-05-08T12:41:10.782Z,2.63
2023-05-08T12:44:05.148Z,3.20
2023-05-08T12:47:00.181Z,2.50
2023-05-08T12:49:52.907Z,2.13
2023-05-08T12:52:52.044Z,2.40
2023-05-08T12:55:53.582Z,2.20
2023-05-08T12:58:47.349Z,2.27
2023-05-08T13:01:37.309Z,2.57
2023-05-08T13:04:27.034Z,2.63
2023-05-08T13:07:16.414Z,2.13
2023-05-08T13:10:26.084Z,2.47
2023-05-08T13:13:18.878Z,2.10
2023-05-08T13:16:11.722Z,2.03
2023-05-08T13:19:04.033Z,2.03
2023-05-08T13:22:10.724Z,1.80
2023-05-08T13:25:00.304Z,2.47
2023-05-08T13:27:53.638Z,2.37
2023-05-08T13:30:48.178Z,2.13
2023-05-08T13:33:42.142Z,2.60
2023-05-08T13:36:33.920Z,2.50
2023-05-08T13:39:26.674Z,2.43
2023-05-08T13:42:22.094Z,2.70
2023-05-08T13:45:21.311Z,2.00
2023-05-08T13:48:15.734Z,2.00
2023-05-08T13:51:08.595Z,2.30
2023-05-08T13:54:04.012Z,2.63
2023-05-08T13:56:58.498Z,1.93
2023-05-08T13:59:50.342Z,2.53
2023-05-08T14:02:50.788Z,2.57
2023-05-08T14:05:49.854Z,2.60
2023-05-08T14:08:52.288Z,2.27
2023-05-08T14:11:44.933Z,2.50
2023-05-08T14:14:36.406Z,2.30
2023-05-08T14:17:27.308Z,2.00
2023-05-08T14:20:17.766Z,2.00
2023-05-08T14:23:07.564Z,1.60
2023-05-08T14:26:04.459Z,2.07
2023-05-08T14:29:11.453Z,2.53
2023-05-08T14:32:11.983Z,2.20
2023-05-08T14:35:08.236Z,2.33
2023-05-08T14:38:02.270Z,2.60
2023-05-08T14:40:57.474Z,2.43
2023-05-08T14:43:47.277Z,2.00
2023-05-08T14:46:35.941Z,2.23
2023-05-08T14:49:37.454Z,3.20
2023-05-08T15:52:54.133Z,3.00
2023-05-08T16:00:12.763Z,2.87
2023-05-08T16:12:00.323Z,3.20
2023-05-08T17:56:28.988Z,3.50
2023-05-08T17:59:27.130Z,3.50
2023-05-08T18:02:16.500Z,2.83
2023-05-08T18:05:05.924Z,3.10
2023-05-08T18:07:54.707Z,3.63
2023-05-08T18:10:43.640Z,3.30
2023-05-08T18:13:35.155Z,3.87
2023-05-08T18:16:34.324Z,4.40
2023-05-08T18:19:23.175Z,4.77
2023-05-08T18:22:13.414Z,4.43
2023-05-08T18:25:02.405Z,3.90
2023-05-08T18:27:53.955Z,4.23
2023-05-08T18:30:44.074Z,4.37
2023-05-08T18:33:37.325Z,5.03
2023-05-08T18:36:29.171Z,4.67
2023-05-08T18:52:15.752Z,4.07
2023-05-08T18:55:07.026Z,3.83
2023-05-08T18:57:56.547Z,4.27
2023-05-08T19:00:45.761Z,4.13
2023-05-08T19:03:38.594Z,3.93
2023-05-08T19:06:40.742Z,5.33
2023-05-08T19:09:32.251Z,5.40
2023-05-08T19:12:28.334Z,5.37
2023-05-08T19:15:25.416Z,4.40
2023-05-08T19:18:26.880Z,4.10
2023-05-08T19:21:26.894Z,4.77
2023-05-08T19:24:25.622Z,4.73
2023-05-08T19:27:25.021Z,5.37
2023-05-08T19:30:21.190Z,5.67
2023-05-08T19:33:13.819Z,4.87
2023-05-08T19:36:13.074Z,3.80
2023-05-08T19:39:15.310Z,4.07
2023-05-08T20:38:45.094Z,4.33
2023-05-08T20:41:36.283Z,4.83
2023-05-08T20:44:56.246Z,4.83
2023-05-08T20:51:59.283Z,4.30
2023-05-08T20:55:17.012Z,5.37
2023-05-08T20:58:22.863Z,4.70
2023-05-08T21:01:33.795Z,4.23
2023-05-08T21:08:56.851Z,4.80
2023-05-08T21:12:13.736Z,5.60
2023-05-08T21:15:55.129Z,4.67
2023-05-08T21:19:23.057Z,4.60
2023-05-08T21:23:04.000Z,4.63
2023-05-08T21:30:21.047Z,5.27
2023-05-08T21:38:23.202Z,4.87
2023-05-08T21:41:43.302Z,4.80
2023-05-08T22:01:33.142Z,5.20
2023-05-08T22:05:20.324Z,5.00
2023-05-08T22:13:17.536Z,5.20
2023-05-08T22:56:16.681Z,5.57
2023-05-08T23:07:18.157Z,4.80
